Time;durP1;ratioP1;P1;durP2;ratioP2;P2;SDS_P1;SDS_P2;PMS_P1;PMS_P2;Temp;Humidity;BMP_temperature;BMP_pressure;BME280_temperature;BME280_humidity;BME280_pressure;Samples;Min_cycle;Max_cycle;Signal;HPM_P1;HPM_P2
2022/09/09 00:01:49;;;;;;;11.60;7.75;;;;;;;17.91;67.92;94183.09;5005818;28;20093;-77
2022/09/09 00:04:30;;;;;;;13.55;8.43;;;;;;;17.91;68.00;94180.41;5005761;28;20038;-77
2022/09/09 00:07:10;;;;;;;10.43;6.93;;;;;;;17.91;67.82;94177.72;5005861;28;20019;-78
2022/09/09 00:09:45;;;;;;;13.18;7.63;;;;;;;17.84;68.21;94183.75;5005758;28;20022;-77
2022/09/09 00:12:15;;;;;;;12.35;7.80;;;;;;;17.78;68.26;94175.09;5005710;28;20097;-78
2022/09/09 00:15:02;;;;;;;12.55;7.40;;;;;;;17.80;68.46;94182.84;5005647;28;20036;-78
2022/09/09 00:18:03;;;;;;;17.98;7.10;;;;;;;17.79;68.43;94195.56;5005559;28;20131;-77
2022/09/09 00:20:28;;;;;;;12.10;8.00;;;;;;;17.73;68.42;94178.09;4983406;28;20114;-77
2022/09/09 00:23:19;;;;;;;11.80;7.63;;;;;;;17.72;68.44;94173.81;5005383;28;20224;-77
2022/09/09 00:26:06;;;;;;;14.57;6.90;;;;;;;17.72;67.92;94164.94;5005437;28;20121;-77
2022/09/09 00:28:41;;;;;;;11.88;6.65;;;;;;;17.67;68.11;94155.22;5005377;28;20053;-78
2022/09/09 00:31:19;;;;;;;9.80;7.30;;;;;;;17.69;68.04;94152.97;5005282;28;20022;-77
2022/09/09 00:33:45;;;;;;;10.63;7.30;;;;;;;17.68;68.28;94146.00;5005146;28;20098;-77
2022/09/09 00:36:17;;;;;;;9.98;6.80;;;;;;;17.69;68.12;94144.88;5005291;28;20029;-76
2022/09/09 00:38:47;;;;;;;;;;;;;;;17.67;68.54;94141.75;5005628;28;20034;-76
2022/09/09 00:41:21;;;;;;;11.18;7.05;;;;;;;17.61;68.67;94135.84;5005284;28;19914;-77
2022/09/09 00:44:03;;;;;;;11.90;7.40;;;;;;;17.52;68.97;94131.75;5020080;28;20313;-76
2022/09/09 00:46:45;;;;;;;11.27;7.70;;;;;;;17.48;69.37;94133.59;5004877;28;20042;-76
2022/09/09 00:49:11;;;;;;;9.68;6.88;;;;;;;17.48;69.54;94136.28;5004791;28;20030;-76
2022/09/09 00:51:39;;;;;;;13.60;7.32;;;;;;;17.51;69.51;94138.28;5004935;28;20229;-76
2022/09/09 00:54:51;;;;;;;9.70;7.47;;;;;;;17.50;69.50;94139.41;5004854;28;20048;-76
2022/09/09 00:57:31;;;;;;;14.05;7.43;;;;;;;17.47;69.54;94134.75;5004363;28;20358;-76
2022/09/09 01:00:05;;;;;;;14.57;8.05;;;;;;;17.41;69.64;94132.28;5004553;28;20263;-75
2022/09/09 01:03:14;;;;;;;9.77;6.82;;;;;;;17.42;69.76;94138.47;5004592;28;20037;-76
2022/09/09 01:05:42;;;;;;;12.40;7.50;;;;;;;17.38;69.75;94135.69;4968906;28;20042;-76
2022/09/09 01:08:33;;;;;;;10.85;8.38;;;;;;;17.39;69.94;94139.94;5004480;28;20049;-76
2022/09/09 01:10:59;;;;;;;9.43;6.80;;;;;;;17.39;69.55;94137.25;4985496;28;20054;-76
2022/09/09 01:13:30;;;;;;;9.57;6.68;;;;;;;17.41;69.95;94142.31;5004721;28;20260;-77
2022/09/09 01:15:59;;;;;;;10.60;7.35;;;;;;;17.42;68.95;94144.66;5004411;28;20026;-77
2022/09/09 01:18:28;;;;;;;11.38;7.57;;;;;;;17.42;68.97;94141.16;5004348;28;20324;-76
2022/09/09 01:21:06;;;;;;;11.45;7.63;;;;;;;17.46;68.79;94150.09;5004445;28;20037;-76
2022/09/09 01:23:34;;;;;;;10.35;6.68;;;;;;;17.47;68.40;94140.13;5004421;28;20026;-76
2022/09/09 01:26:08;;;;;;;11.18;7.63;;;;;;;17.48;68.59;94136.28;5004385;28;20064;-76
2022/09/09 01:28:35;;;;;;;18.48;7.22;;;;;;;17.47;68.41;94134.75;5004095;28;20022;-76
2022/09/09 01:31:02;;;;;;;18.55;8.55;;;;;;;17.41;68.88;94131.53;5004122;28;20125;-76
2022/09/09 01:33:28;;;;;;;16.77;7.30;;;;;;;17.42;68.91;94133.88;5004180;28;20030;-77
2022/09/09 01:36:03;;;;;;;9.88;7.05;;;;;;;17.44;69.22;94145.09;5004132;28;20276;-76
2022/09/09 01:38:30;;;;;;;11.63;7.53;;;;;;;17.41;69.24;94139.59;5004088;28;20202;-76
2022/09/09 01:40:55;;;;;;;11.55;8.07;;;;;;;17.41;69.56;94153.06;5004000;28;20049;-76
2022/09/09 01:43:23;;;;;;;14.02;7.45;;;;;;;17.39;69.32;94150.72;5004152;28;20026;-76
2022/09/09 01:45:53;;;;;;;11.15;7.25;;;;;;;17.40;68.78;94151.50;5003758;28;20046;-76
2022/09/09 01:48:19;;;;;;;13.50;7.53;;;;;;;17.41;68.88;94153.84;5003547;28;20026;-76
2022/09/09 01:50:44;;;;;;;14.32;7.75;;;;;;;17.41;69.16;94163.84;5003881;28;20033;-78
2022/09/09 01:53:11;;;;;;;13.82;8.45;;;;;;;17.41;68.82;94161.16;5004021;28;20233;-77
2022/09/09 01:55:42;;;;;;;13.45;7.82;;;;;;;17.42;67.91;94155.44;5003839;28;20026;-77
2022/09/09 01:58:35;;;;;;;10.35;8.10;;;;;;;17.39;67.80;94158.03;5003703;28;20018;-77
2022/09/09 02:01:15;;;;;;;11.77;8.40;;;;;;;17.36;67.68;94162.22;5003591;28;20026;-78
2022/09/09 02:03:47;;;;;;;11.38;7.80;;;;;;;17.35;68.38;94157.94;5003666;28;20037;-78
2022/09/09 02:06:35;;;;;;;10.83;7.63;;;;;;;17.29;68.97;94145.88;5003694;28;20204;-77
2022/09/09 02:09:04;;;;;;;27.30;9.13;;;;;;;17.30;68.99;94157.41;5003444;28;20057;-79
2022/09/09 02:11:31;;;;;;;14.88;7.63;;;;;;;17.25;69.19;94161.16;5003676;28;20089;-78
2022/09/09 02:14:15;;;;;;;15.30;7.82;;;;;;;17.26;68.70;94151.97;5003616;28;20299;-78
2022/09/09 02:16:43;;;;;;;16.63;8.32;;;;;;;17.21;68.95;94136.81;5003434;28;20044;-77
2022/09/09 02:19:21;;;;;;;12.13;8.20;;;;;;;17.23;69.36;94136.47;5003307;28;20026;-78
2022/09/09 02:21:47;;;;;;;10.20;7.70;;;;;;;17.14;69.61;94141.28;5003430;28;20026;-79
2022/09/09 02:24:15;;;;;;;15.73;8.13;;;;;;;17.10;69.74;94133.09;5003418;28;20026;-76
2022/09/09 02:26:44;;;;;;;11.60;7.75;;;;;;;17.10;70.06;94133.09;5003341;28;20038;-76
2022/09/09 02:29:16;;;;;;;10.07;7.70;;;;;;;17.08;70.05;94129.19;5003199;28;20026;-76
2022/09/09 02:31:44;;;;;;;15.38;8.00;;;;;;;17.04;69.90;94132.56;5003113;28;20040;-76
2022/09/09 02:34:11;;;;;;;10.75;7.80;;;;;;;17.03;69.58;94154.44;5003034;28;20142;-76
2022/09/09 02:36:41;;;;;;;12.10;7.88;;;;;;;16.98;69.32;94138.56;5003112;28;20372;-76
2022/09/09 02:39:10;;;;;;;10.93;8.30;;;;;;;16.96;69.51;94149.69;5003053;28;20121;-76
2022/09/09 02:41:39;;;;;;;16.65;8.52;;;;;;;16.96;69.66;94154.28;5003115;28;20022;-76
2022/09/09 02:44:13;;;;;;;17.35;8.77;;;;;;;16.90;69.93;94151.06;5002484;28;20048;-76
2022/09/09 02:47:09;;;;;;;16.77;8.55;;;;;;;16.90;70.04;94161.81;5002846;28;20110;-76
2022/09/09 02:49:38;;;;;;;11.90;8.30;;;;;;;16.85;70.13;94151.31;5003106;28;20225;-76
2022/09/09 02:52:22;;;;;;;13.55;8.35;;;;;;;16.79;70.48;94158.84;5003023;28;20096;-76
2022/09/09 02:54:53;;;;;;;12.18;8.32;;;;;;;16.71;70.71;94153.59;5003078;28;20018;-76
2022/09/09 02:57:31;;;;;;;15.70;8.82;;;;;;;16.70;70.88;94160.13;5003066;28;20022;-76
2022/09/09 02:59:58;;;;;;;15.30;8.85;;;;;;;16.69;70.68;94161.22;5003732;28;20085;-77
2022/09/09 03:02:25;;;;;;;12.55;8.95;;;;;;;16.69;70.51;94155.84;5007061;28;20045;-76
2022/09/09 03:04:50;;;;;;;12.02;8.98;;;;;;;16.68;70.87;94149.69;5007189;28;20045;-76
2022/09/09 03:07:16;;;;;;;11.82;8.82;;;;;;;16.67;70.57;94156.22;5006947;28;20026;-77
2022/09/09 03:09:42;;;;;;;21.08;9.07;;;;;;;16.68;70.50;94162.38;5006875;28;20033;-77
2022/09/09 03:12:08;;;;;;;16.77;10.82;;;;;;;16.64;70.52;94157.66;5006766;28;20030;-77
2022/09/09 03:14:33;;;;;;;18.92;8.05;;;;;;;16.70;70.11;94162.81;5006745;28;20293;-77
2022/09/09 03:17:00;;;;;;;16.35;9.10;;;;;;;16.67;69.86;94158.09;5006691;28;20030;-77
2022/09/09 03:19:27;;;;;;;13.77;9.07;;;;;;;16.67;70.16;94161.59;5006876;28;20057;-77
2022/09/09 03:21:53;;;;;;;15.43;8.20;;;;;;;16.69;70.57;94161.22;5006650;28;20038;-76
2022/09/09 03:24:19;;;;;;;12.05;8.75;;;;;;;16.67;70.47;94158.91;5006718;28;20281;-77
2022/09/09 03:26:44;;;;;;;18.15;9.65;;;;;;;16.68;70.81;94165.06;5006506;28;20038;-77
2022/09/09 03:29:12;;;;;;;19.25;8.48;;;;;;;16.67;71.00;94150.03;5006434;28;20030;-76
2022/09/09 03:31:38;;;;;;;17.50;8.98;;;;;;;16.63;70.78;94158.81;5006461;28;20026;-76
2022/09/09 03:34:04;;;;;;;13.90;9.57;;;;;;;16.64;71.00;94157.66;5006381;28;20312;-76
2022/09/09 03:36:29;;;;;;;18.33;9.80;;;;;;;16.64;71.36;94160.34;5006074;28;20030;-76
2022/09/09 03:38:55;;;;;;;13.05;9.32;;;;;;;16.65;71.24;94156.53;5006350;28;20038;-76
2022/09/09 03:41:24;;;;;;;15.30;9.70;;;;;;;16.60;70.98;94154.09;5006590;28;20034;-76
2022/09/09 03:43:51;;;;;;;20.75;10.27;;;;;;;16.51;71.66;94144.63;5006416;28;20054;-76
2022/09/09 03:46:17;;;;;;;15.73;9.23;;;;;;;16.51;71.93;94150.00;5005811;28;20046;-76
2022/09/09 03:48:43;;;;;;;17.52;9.80;;;;;;;16.47;71.78;94149.91;5003884;28;20030;-76
2022/09/09 03:51:09;;;;;;;21.17;9.18;;;;;;;16.45;72.00;94152.16;5004869;28;20327;-76
2022/09/09 03:53:35;;;;;;;19.08;9.15;;;;;;;16.47;72.01;94147.22;5004856;28;20050;-76
2022/09/09 03:56:01;;;;;;;13.57;9.30;;;;;;;16.46;71.91;94156.41;5004863;28;20029;-76
2022/09/09 03:58:27;;;;;;;18.83;9.77;;;;;;;16.41;71.79;94162.03;5004600;28;20093;-77
2022/09/09 04:01:00;;;;;;;15.13;9.95;;;;;;;16.39;72.01;94159.69;5004987;28;20026;-75
2022/09/09 04:03:25;;;;;;;17.30;9.63;;;;;;;16.39;72.08;94151.59;5004686;28;20037;-76
2022/09/09 04:05:55;;;;;;;16.00;9.68;;;;;;;16.42;72.16;94174.34;5004822;28;20062;-76
2022/09/09 04:08:21;;;;;;;17.23;9.13;;;;;;;16.45;72.33;94173.69;5004868;28;20112;-76
2022/09/09 04:10:48;;;;;;;13.98;9.35;;;;;;;16.43;71.79;94168.63;5004207;28;20313;-76
2022/09/09 04:13:18;;;;;;;15.30;10.00;;;;;;;16.47;72.22;94166.03;5004593;28;20033;-76
2022/09/09 04:15:49;;;;;;;15.45;10.25;;;;;;;16.48;71.85;94164.13;5004672;28;20133;-77
2022/09/09 04:18:15;;;;;;;18.17;10.90;;;;;;;16.49;72.09;94155.72;5004541;28;20037;-77
2022/09/09 04:20:40;;;;;;;18.40;11.88;;;;;;;16.52;71.98;94152.34;5004591;28;20331;-77
2022/09/09 04:23:06;;;;;;;24.48;9.80;;;;;;;16.54;71.69;94152.78;5004477;28;20014;-77
2022/09/09 04:25:31;;;;;;;15.20;9.23;;;;;;;16.57;71.65;94154.78;5004453;28;20025;-76
2022/09/09 04:27:57;;;;;;;10.80;8.23;;;;;;;16.59;71.76;94157.91;5004162;28;20333;-77
2022/09/09 04:30:24;;;;;;;14.20;8.80;;;;;;;16.59;71.88;94163.31;5004752;28;20022;-76
2022/09/09 04:32:50;;;;;;;14.60;9.52;;;;;;;16.63;72.02;94169.56;5004470;28;20019;-76
2022/09/09 04:35:16;;;;;;;14.73;8.45;;;;;;;16.67;72.15;94168.84;5004409;28;20105;-84
2022/09/09 04:37:41;;;;;;;17.00;9.02;;;;;;;16.70;72.03;94165.50;5004800;28;20098;-86
2022/09/09 04:40:09;;;;;;;18.13;10.05;;;;;;;16.74;72.53;94169.06;5005249;28;20041;-86
2022/09/09 04:42:36;;;;;;;14.35;10.00;;;;;;;16.78;72.34;94172.63;5004671;28;20045;-80
2022/09/09 04:45:02;;;;;;;16.73;9.88;;;;;;;16.79;71.39;94182.25;5004162;28;20080;-79
2022/09/09 04:47:27;;;;;;;15.95;9.48;;;;;;;16.79;70.51;94169.59;4956960;28;1377580;-82
2022/09/09 04:49:54;;;;;;;14.95;10.05;;;;;;;16.82;70.86;94165.47;5005284;28;20101;-82
2022/09/09 04:52:20;;;;;;;15.98;9.68;;;;;;;16.88;70.82;94164.09;5004126;28;20029;-81
2022/09/09 04:54:46;;;;;;;18.50;9.57;;;;;;;16.95;71.09;94152.72;5005110;28;20093;-81
2022/09/09 04:57:12;;;;;;;15.43;10.07;;;;;;;17.02;71.30;94153.69;5004142;28;20063;-80
2022/09/09 04:59:39;;;;;;;25.23;9.82;;;;;;;17.11;71.31;94156.19;5005230;28;20030;-82
2022/09/09 05:02:05;;;;;;;13.90;9.65;;;;;;;17.19;71.27;94152.53;5005500;28;20032;-86
2022/09/09 05:04:31;;;;;;;20.15;12.18;;;;;;;17.28;70.87;94147.00;5005639;28;20026;-84
2022/09/09 05:06:56;;;;;;;17.83;10.95;;;;;;;17.34;70.13;94153.69;5004926;28;20090;-86
2022/09/09 05:09:22;;;;;;;21.85;10.88;;;;;;;17.42;69.78;94136.56;5006924;28;20214;-82
2022/09/09 05:11:47;;;;;;;22.20;10.40;;;;;;;17.52;69.34;94126.38;5004852;28;20018;-83
2022/09/09 05:14:14;;;;;;;20.33;10.80;;;;;;;17.61;70.17;94135.06;5004881;28;20018;-85
2022/09/09 05:16:40;;;;;;;19.60;10.23;;;;;;;17.70;67.88;94143.72;5004495;28;20271;-85
2022/09/09 05:19:07;;;;;;;17.63;11.32;;;;;;;17.78;67.51;94161.63;5005124;28;20018;-87
2022/09/09 05:21:33;;;;;;;30.63;11.13;;;;;;;17.80;66.83;94153.19;5006401;28;20086;-90
2022/09/09 05:24:00;;;;;;;19.52;9.88;;;;;;;17.82;67.08;94140.91;5005817;28;20106;-87
2022/09/09 05:26:26;;;;;;;21.52;9.82;;;;;;;17.86;67.45;94132.16;5004915;28;20037;-80
2022/09/09 05:28:51;;;;;;;22.77;10.55;;;;;;;17.88;67.58;94138.00;5004796;28;20030;-80
2022/09/09 05:31:18;;;;;;;28.55;10.80;;;;;;;18.02;67.36;94146.38;5019617;28;20030;-79
2022/09/09 05:33:45;;;;;;;42.17;12.25;;;;;;;18.14;66.83;94137.38;5004432;28;20058;-77
2022/09/09 05:36:13;;;;;;;21.60;11.43;;;;;;;18.17;66.04;94134.75;5004162;28;20041;-78
2022/09/09 05:38:40;;;;;;;27.92;10.50;;;;;;;18.20;65.18;94139.44;5004334;28;20018;-77
2022/09/09 05:41:06;;;;;;;33.80;11.25;;;;;;;18.20;65.66;94139.44;5004104;28;20052;-78
2022/09/09 05:43:32;;;;;;;26.92;11.02;;;;;;;18.20;65.76;94142.13;5004155;28;20340;-77
2022/09/09 05:46:09;;;;;;;28.85;11.77;;;;;;;18.19;65.31;94147.88;5003855;28;20022;-78
2022/09/09 05:48:40;;;;;;;30.48;11.50;;;;;;;18.21;65.59;94159.88;5004136;28;20026;-78
2022/09/09 05:51:08;;;;;;;26.67;11.85;;;;;;;18.23;66.15;94165.69;5003992;28;20097;-78
2022/09/09 05:53:37;;;;;;;23.08;10.98;;;;;;;18.27;66.34;94151.50;5003815;28;20093;-80
2022/09/09 05:56:32;;;;;;;19.88;11.10;;;;;;;18.34;66.40;94148.94;5004011;28;20037;-79
2022/09/09 05:58:59;;;;;;;31.98;12.63;;;;;;;18.37;65.43;94149.03;5004082;28;20026;-79
2022/09/09 06:01:31;;;;;;;21.35;10.57;;;;;;;18.45;64.89;94144.56;5003754;28;20027;-79
2022/09/09 06:03:57;;;;;;;17.83;11.02;;;;;;;18.49;63.97;94150.81;5004302;28;20050;-81
2022/09/09 06:06:25;;;;;;;27.45;10.85;;;;;;;18.53;63.97;94167.84;5003988;28;20030;-79
2022/09/09 06:08:52;;;;;;;26.38;10.93;;;;;;;18.50;64.68;94173.97;5004178;28;20078;-81
2022/09/09 06:11:35;;;;;;;34.92;11.32;;;;;;;18.48;63.98;94170.03;5003814;28;20018;-80
2022/09/09 06:14:01;;;;;;;25.67;10.63;;;;;;;18.50;64.62;94173.16;5003901;28;20097;-88
2022/09/09 06:16:28;;;;;;;27.08;10.07;;;;;;;18.51;64.99;94170.13;5004450;28;20029;-88
2022/09/09 06:18:56;;;;;;;23.80;9.90;;;;;;;18.60;64.29;94168.00;5003828;28;20025;-87
2022/09/09 06:21:23;;;;;;;17.50;8.90;;;;;;;18.65;63.84;94175.81;5003854;28;20032;-86
2022/09/09 06:23:50;;;;;;;28.60;10.02;;;;;;;18.69;63.53;94165.06;5003838;28;20233;-86
2022/09/09 06:27:01;;;;;;;17.25;10.18;;;;;;;18.79;62.61;94166.44;5003767;28;20057;-92
2022/09/09 06:29:27;;;;;;;18.80;10.02;;;;;;;18.83;62.72;94167.31;5002871;28;20049;-84
2022/09/09 06:31:52;;;;;;;23.45;9.57;;;;;;;18.93;62.32;94169.41;5003856;28;20022;-87
2022/09/09 06:34:21;;;;;;;23.38;10.00;;;;;;;19.01;62.21;94165.69;5002319;28;20225;-87
2022/09/09 06:37:06;;;;;;;21.88;10.10;;;;;;;19.14;61.90;94152.78;5018578;28;20030;-84
2022/09/09 06:39:42;;;;;;;17.38;10.05;;;;;;;19.24;61.00;94154.13;5003915;28;20021;-90
2022/09/09 06:42:08;;;;;;;25.10;9.32;;;;;;;19.32;60.99;94157.72;5019721;28;20045;-90
2022/09/09 06:44:53;;;;;;;21.25;9.85;;;;;;;19.30;61.17;94160.78;5003768;28;20018;-83
2022/09/09 06:47:24;;;;;;;23.45;8.85;;;;;;;19.39;60.74;94153.19;5003966;28;20050;-82
2022/09/09 06:49:56;;;;;;;16.58;8.75;;;;;;;19.47;61.53;94159.50;5003949;28;20026;-83
2022/09/09 06:53:14;;;;;;;;;;;;;;;;;;;;;
2022/09/09 06:56:17;;;;;;;19.45;9.32;;;;;;;19.75;60.23;94172.72;5003513;28;20054;-91
2022/09/09 06:58:46;;;;;;;21.20;10.18;;;;;;;19.78;59.86;94172.00;5004111;28;20026;-90
2022/09/09 07:01:16;;;;;;;20.27;10.15;;;;;;;19.78;59.89;94174.72;5006598;28;20034;-88
2022/09/09 07:03:45;;;;;;;23.90;8.68;;;;;;;19.87;59.45;94176.38;5003306;28;20050;-86
2022/09/09 07:06:17;;;;;;;11.95;8.40;;;;;;;19.84;58.65;94169.75;5003248;28;20069;-88
2022/09/09 07:08:48;;;;;;;20.83;8.65;;;;;;;19.83;59.01;94165.50;5019146;28;20113;-87
2022/09/09 07:11:36;;;;;;;26.73;8.57;;;;;;;19.94;58.75;94171.06;5003692;28;20319;-87
2022/09/09 07:14:39;;;;;;;18.40;8.70;;;;;;;20.00;58.06;94164.94;5003180;28;20080;-83
2022/09/09 07:17:05;;;;;;;13.73;8.13;;;;;;;20.01;58.86;94161.13;5003746;28;20022;-86
2022/09/09 07:19:44;;;;;;;;;;;;;;;;;;;;;
2022/09/09 07:22:10;;;;;;;18.05;7.50;;;;;;;20.32;58.47;94163.84;5003865;28;20045;-84
2022/09/09 07:24:38;;;;;;;14.40;8.20;;;;;;;20.45;57.39;94165.16;5002816;28;20312;-85
2022/09/09 07:27:04;;;;;;;19.63;7.63;;;;;;;20.63;56.86;94157.28;5003568;28;20018;-84
2022/09/09 07:29:29;;;;;;;16.58;7.28;;;;;;;20.78;56.71;94150.88;5003767;28;20022;-86
2022/09/09 07:31:55;;;;;;;15.73;7.00;;;;;;;20.97;56.16;94155.31;5018966;28;20023;-89
2022/09/09 07:34:20;;;;;;;22.08;8.27;;;;;;;21.04;55.01;94151.91;5004095;28;20018;-88
2022/09/09 07:36:46;;;;;;;14.32;6.63;;;;;;;21.18;54.94;94148.56;5003702;28;20137;-87
2022/09/09 07:39:13;;;;;;;13.90;6.88;;;;;;;21.40;54.88;94155.72;5003846;28;20022;-85
2022/09/09 07:41:42;;;;;;;19.35;6.45;;;;;;;21.62;54.70;94158.66;5003995;28;20057;-88
2022/09/09 07:44:11;;;;;;;13.38;7.25;;;;;;;21.77;52.20;94167.66;5003569;28;20034;-86
2022/09/09 07:46:39;;;;;;;15.10;6.72;;;;;;;21.78;52.07;94161.84;5004542;28;20042;-88
2022/09/09 07:49:05;;;;;;;12.73;6.32;;;;;;;21.88;52.20;94168.53;5007350;28;20018;-85
2022/09/09 07:51:51;;;;;;;17.75;7.05;;;;;;;22.06;52.54;94167.84;5006812;28;20141;-87
2022/09/09 07:54:23;;;;;;;21.67;7.63;;;;;;;22.30;52.25;94164.50;5005081;28;20037;-90
2022/09/09 07:56:49;;;;;;;;;;;;;;;22.54;51.34;94165.78;5007472;28;20325;-87
2022/09/09 07:59:14;;;;;;;11.40;6.13;;;;;;;22.66;50.31;94167.41;5007279;28;19944;-87
2022/09/09 08:01:48;;;;;;;22.67;6.50;;;;;;;22.86;50.52;94154.28;5007038;28;20030;-87
2022/09/09 08:04:19;;;;;;;12.88;6.80;;;;;;;23.00;48.55;94154.31;5006816;28;20022;-83
2022/09/09 08:06:47;;;;;;;12.68;6.43;;;;;;;23.02;48.45;94154.72;5007104;28;20030;-88
2022/09/09 08:09:13;;;;;;;13.45;6.43;;;;;;;23.06;48.16;94156.66;5005515;28;20321;-86
2022/09/09 08:11:40;;;;;;;13.45;5.68;;;;;;;23.11;47.77;94156.28;5006950;28;20086;-89
2022/09/09 08:14:10;;;;;;;14.23;6.18;;;;;;;23.12;47.83;94164.06;5005373;28;20108;-86
2022/09/09 08:16:40;;;;;;;12.27;5.60;;;;;;;23.25;47.89;94156.31;5006882;28;20045;-87
2022/09/09 08:19:07;;;;;;;12.80;5.95;;;;;;;23.36;48.28;94159.81;5006441;28;20026;-85
2022/09/09 08:21:34;;;;;;;14.43;6.50;;;;;;;23.56;47.69;94162.16;5021753;28;20049;-87
2022/09/09 08:24:01;;;;;;;12.02;6.25;;;;;;;23.73;47.44;94161.41;5007190;28;20041;-87
2022/09/09 08:26:31;;;;;;;11.68;5.55;;;;;;;23.96;47.14;94160.25;5006778;28;20037;-89
2022/09/09 08:28:59;;;;;;;12.20;6.43;;;;;;;24.05;46.25;94166.03;5006800;28;20029;-87
2022/09/09 08:31:32;;;;;;;10.57;5.53;;;;;;;24.15;46.82;94153.56;5006723;28;20041;-89
2022/09/09 08:34:03;;;;;;;21.45;5.60;;;;;;;24.28;46.82;94151.97;5007811;28;20041;-87
2022/09/09 08:36:33;;;;;;;12.30;6.33;;;;;;;24.37;45.01;94160.53;5008107;28;20033;-89
2022/09/09 08:38:59;;;;;;;11.32;5.55;;;;;;;24.53;45.78;94151.94;5006740;28;20270;-90
2022/09/09 08:41:55;;;;;;;17.48;5.90;;;;;;;24.70;44.35;94165.88;5008106;28;20026;-90
2022/09/09 08:44:39;;;;;;;14.30;5.60;;;;;;;24.66;43.89;94156.94;5023730;28;20033;-93
2022/09/09 08:47:27;;;;;;;10.10;6.35;;;;;;;24.27;43.94;94153.16;5008326;28;20050;-93
2022/09/09 08:50:24;;;;;;;20.27;5.90;;;;;;;24.39;44.04;94146.50;5008200;28;20343;-92
2022/09/09 08:53:07;;;;;;;12.07;6.03;;;;;;;24.42;44.52;94148.44;5008236;28;20030;-90
2022/09/09 08:55:33;;;;;;;15.27;5.50;;;;;;;24.56;44.38;94156.59;5008440;28;20050;-93
2022/09/09 08:58:07;;;;;;;13.82;5.70;;;;;;;24.72;44.65;94147.19;5006791;28;20026;-91
2022/09/09 09:04:05;;;;;;;9.15;5.47;;;;;;;25.11;43.56;94143.47;5007833;28;20050;-92
2022/09/09 09:07:00;;;;;;;17.58;5.93;;;;;;;25.30;43.22;94143.00;5022324;28;20097;-93
2022/09/09 09:09:51;;;;;;;12.40;5.13;;;;;;;25.53;42.74;94149.84;5006830;28;20240;-92
2022/09/09 09:12:58;;;;;;;12.57;5.38;;;;;;;25.73;41.53;94145.38;5008289;28;20443;-92
2022/09/09 09:15:26;;;;;;;16.77;5.30;;;;;;;25.77;41.16;94146.13;5000966;28;20320;-87
2022/09/09 09:17:52;;;;;;;14.50;5.68;;;;;;;25.85;41.18;94154.25;5005304;28;20028;-82
2022/09/09 09:20:26;;;;;;;16.38;5.07;;;;;;;25.94;41.69;94152.63;5004781;28;20022;-82
2022/09/09 09:22:58;;;;;;;13.05;5.20;;;;;;;26.08;40.80;94146.25;5005281;28;20045;-82
2022/09/09 09:25:30;;;;;;;13.50;5.10;;;;;;;26.24;40.69;94153.91;5005031;28;20022;-87
2022/09/09 09:28:06;;;;;;;16.55;5.30;;;;;;;26.35;40.17;94138.16;5005999;28;20098;-82
2022/09/09 09:31:03;;;;;;;8.98;4.68;;;;;;;26.40;40.71;94134.22;5005489;28;20103;-89
2022/09/09 09:33:46;;;;;;;17.33;4.75;;;;;;;26.17;39.83;94153.97;5002109;28;20038;-90
2022/09/09 09:36:15;;;;;;;16.58;5.63;;;;;;;26.32;40.08;94149.94;5004994;28;20041;-88
2022/09/09 09:38:52;;;;;;;17.95;5.53;;;;;;;26.47;39.48;94141.56;5004340;28;20037;-80
2022/09/09 09:41:42;;;;;;;14.82;5.35;;;;;;;26.66;38.57;94146.44;5003505;28;20161;-80
2022/09/09 09:44:29;;;;;;;10.98;4.82;;;;;;;26.66;38.81;94143.69;5001669;28;20026;-80
2022/09/09 09:47:16;;;;;;;12.90;5.05;;;;;;;26.80;38.14;94134.53;5002005;28;20042;-80
2022/09/09 09:49:59;;;;;;;12.18;5.13;;;;;;;26.82;38.84;94138.41;5002556;28;20050;-80
2022/09/09 09:52:35;;;;;;;7.43;4.03;;;;;;;26.85;37.89;94127.84;5003181;28;20321;-80
2022/09/09 09:55:06;;;;;;;19.40;5.03;;;;;;;26.86;37.95;94132.13;5003028;28;20038;-79
2022/09/09 09:57:34;;;;;;;11.52;4.47;;;;;;;26.91;37.72;94129.72;5003689;28;20376;-80
2022/09/09 10:00:17;;;;;;;11.18;5.10;;;;;;;26.96;38.68;94129.25;5003697;28;20333;-80
2022/09/09 10:02:45;;;;;;;16.83;5.13;;;;;;;26.98;38.85;94120.63;5003796;28;20022;-80
2022/09/09 10:05:22;;;;;;;33.03;5.40;;;;;;;27.07;38.01;94120.91;5003903;28;20065;-80
2022/09/09 10:08:11;;;;;;;14.15;4.70;;;;;;;27.07;38.31;94125.59;5003976;28;20060;-80
2022/09/09 10:10:46;;;;;;;12.55;5.25;;;;;;;27.05;37.34;94128.75;5003581;28;20022;-80
2022/09/09 10:13:18;;;;;;;9.68;4.75;;;;;;;26.98;37.57;94129.59;5003916;28;20102;-80
2022/09/09 10:16:10;;;;;;;10.00;4.47;;;;;;;26.92;38.31;94133.22;5003945;28;20260;-80
2022/09/09 10:18:41;;;;;;;12.50;5.07;;;;;;;26.80;37.69;94135.31;5003610;28;20030;-80
2022/09/09 10:21:20;;;;;;;14.37;4.77;;;;;;;26.61;38.87;94136.72;5003460;28;20025;-80
2022/09/09 10:24:05;;;;;;;12.93;4.68;;;;;;;26.51;39.72;94129.41;5003698;28;20033;-80
2022/09/09 10:26:36;;;;;;;9.27;4.82;;;;;;;26.46;40.91;94137.28;5003474;28;20030;-81
2022/09/09 10:29:50;;;;;;;10.38;4.35;;;;;;;26.39;40.66;94135.41;5003372;28;20313;-82
2022/09/09 10:32:33;;;;;;;10.90;5.22;;;;;;;26.37;40.87;94144.00;4991834;28;20026;-81
2022/09/09 10:35:25;;;;;;;14.85;5.25;;;;;;;26.44;40.51;94145.91;5003462;28;20331;-82
2022/09/09 10:37:57;;;;;;;14.63;5.72;;;;;;;26.47;40.62;94139.59;5001535;28;20214;-82
2022/09/09 10:40:26;;;;;;;13.10;4.40;;;;;;;26.47;40.15;94145.06;5003382;28;20034;-82
2022/09/09 10:43:19;;;;;;;12.93;4.90;;;;;;;26.46;40.91;94146.25;5003653;28;20248;-82
2022/09/09 10:46:10;;;;;;;12.27;4.90;;;;;;;26.52;39.96;94143.84;5001231;28;20404;-83
2022/09/09 10:48:37;;;;;;;10.93;4.25;;;;;;;26.54;41.36;94145.00;5001754;28;20061;-83
2022/09/09 10:51:40;;;;;;;18.23;5.38;;;;;;;26.57;40.52;94146.94;5003182;28;20334;-82
2022/09/09 10:54:31;;;;;;;13.15;4.95;;;;;;;26.59;40.52;94135.59;5003252;28;20026;-83
2022/09/09 10:57:07;;;;;;;13.32;4.95;;;;;;;26.60;41.24;94137.13;5003475;28;20041;-82
2022/09/09 10:59:48;;;;;;;11.05;4.72;;;;;;;26.51;41.17;94140.34;5003113;28;20332;-82
2022/09/09 11:02:22;;;;;;;13.63;4.45;;;;;;;26.40;40.56;94143.19;5003131;28;20018;-81
2022/09/09 11:05:14;;;;;;;10.10;4.43;;;;;;;26.25;43.01;94139.06;5003189;28;20022;-86
2022/09/09 11:07:45;;;;;;;11.80;5.45;;;;;;;26.15;40.05;94146.19;5003408;28;20101;-86
2022/09/09 11:10:24;;;;;;;20.08;5.50;;;;;;;26.17;42.91;94149.28;5003739;28;20114;-83
2022/09/09 11:12:53;;;;;;;14.82;5.30;;;;;;;26.19;40.91;94143.41;5018700;28;20387;-84
2022/09/09 11:15:26;;;;;;;19.40;5.28;;;;;;;26.25;40.33;94138.28;5003395;28;20049;-85
2022/09/09 11:17:58;;;;;;;17.02;5.35;;;;;;;26.35;41.02;94138.16;5018607;28;20029;-81
2022/09/09 11:20:25;;;;;;;12.15;5.43;;;;;;;26.49;41.94;94128.28;5003280;28;20204;-82
2022/09/09 11:23:16;;;;;;;18.52;5.13;;;;;;;26.58;42.17;94123.91;5007333;28;20030;-79
2022/09/09 11:25:51;;;;;;;14.80;4.97;;;;;;;26.79;41.54;94122.06;5007015;28;20030;-81
2022/09/09 11:28:41;;;;;;;20.80;5.50;;;;;;;26.88;39.74;94122.31;5005818;28;20053;-81
2022/09/09 11:31:42;;;;;;;18.52;6.43;;;;;;;27.05;40.03;94114.28;5006972;28;20097;-79
2022/09/09 11:34:21;;;;;;;18.83;5.57;;;;;;;27.16;39.84;94095.75;5006989;28;20042;-80
2022/09/09 11:36:56;;;;;;;13.23;4.75;;;;;;;27.26;39.56;94088.63;5007058;28;20037;-80
2022/09/09 11:39:36;;;;;;;10.95;4.85;;;;;;;27.32;38.53;94092.44;5006719;28;20042;-80
2022/09/09 11:42:18;;;;;;;12.70;5.57;;;;;;;27.39;39.21;94087.59;5006583;28;20026;-83
2022/09/09 11:44:44;;;;;;;19.45;5.85;;;;;;;27.50;38.69;94086.66;5006953;28;20029;-82
2022/09/09 11:47:31;;;;;;;14.38;5.32;;;;;;;27.57;38.22;94075.59;5006613;28;20038;-83
2022/09/09 11:50:14;;;;;;;15.90;5.15;;;;;;;27.61;39.71;94051.66;5006683;28;20014;-82
2022/09/09 11:52:49;;;;;;;20.80;8.05;;;;;;;27.63;39.72;94046.56;5006483;28;20280;-81
2022/09/09 11:55:30;;;;;;;14.50;6.15;;;;;;;27.68;38.60;94040.59;5006694;28;20019;-80
2022/09/09 11:58:03;;;;;;;10.15;5.80;;;;;;;27.70;38.06;94051.91;5006016;28;20255;-79
2022/09/09 12:00:44;;;;;;;19.85;5.50;;;;;;;27.51;38.66;94055.38;5006208;28;20089;-78